sensor_id;sensor_type;location;lat;lon;timestamp;P1;durP1;ratioP1;P2;durP2;ratioP2
4963;SDS011;2497;47.410;9.740;2023-03-07T00:01:51;17.17;;;7.93;;
4963;SDS011;2497;47.410;9.740;2023-03-07T00:04:20;15.10;;;7.03;;
4963;SDS011;2497;47.410;9.740;2023-03-07T00:06:47;16.53;;;7.67;;
4963;SDS011;2497;47.410;9.740;2023-03-07T00:09:14;17.50;;;6.70;;
4963;SDS011;2497;47.410;9.740;2023-03-07T00:11:41;15.23;;;6.33;;
4963;SDS011;2497;47.410;9.740;2023-03-07T00:14:08;12.73;;;6.43;;
4963;SDS011;2497;47.410;9.740;2023-03-07T00:16:36;21.07;;;7.90;;
4963;SDS011;2497;47.410;9.740;2023-03-07T00:19:03;18.40;;;8.23;;
4963;SDS011;2497;47.410;9.740;2023-03-07T00:21:33;17.07;;;6.73;;
4963;SDS011;2497;47.410;9.740;2023-03-07T00:24:00;19.13;;;7.40;;
4963;SDS011;2497;47.410;9.740;2023-03-07T00:26:28;20.73;;;7.20;;
4963;SDS011;2497;47.410;9.740;2023-03-07T00:28:56;16.43;;;7.20;;
4963;SDS011;2497;47.410;9.740;2023-03-07T00:31:23;16.37;;;7.53;;
4963;SDS011;2497;47.410;9.740;2023-03-07T00:33:50;15.27;;;6.10;;
4963;SDS011;2497;47.410;9.740;2023-03-07T00:36:18;27.30;;;9.10;;
4963;SDS011;2497;47.410;9.740;2023-03-07T00:38:48;15.60;;;6.70;;
4963;SDS011;2497;47.410;9.740;2023-03-07T00:41:16;14.67;;;7.37;;
4963;SDS011;2497;47.410;9.740;2023-03-07T00:43:45;15.70;;;8.27;;
4963;SDS011;2497;47.410;9.740;2023-03-07T00:46:12;19.97;;;7.50;;
4963;SDS011;2497;47.410;9.740;2023-03-07T00:48:39;16.00;;;7.03;;
4963;SDS011;2497;47.410;9.740;2023-03-07T00:51:08;20.73;;;7.57;;
4963;SDS011;2497;47.410;9.740;2023-03-07T00:53:37;16.13;;;6.77;;
4963;SDS011;2497;47.410;9.740;2023-03-07T00:56:08;16.23;;;7.53;;
4963;SDS011;2497;47.410;9.740;2023-03-07T00:58:39;17.77;;;6.90;;
4963;SDS011;2497;47.410;9.740;2023-03-07T01:01:06;16.37;;;7.33;;
4963;SDS011;2497;47.410;9.740;2023-03-07T01:03:34;17.30;;;7.70;;
4963;SDS011;2497;47.410;9.740;2023-03-07T01:06:02;15.27;;;7.13;;
4963;SDS011;2497;47.410;9.740;2023-03-07T01:08:30;18.80;;;7.57;;
4963;SDS011;2497;47.410;9.740;2023-03-07T01:10:58;21.97;;;7.90;;
4963;SDS011;2497;47.410;9.740;2023-03-07T01:13:28;14.63;;;6.80;;
4963;SDS011;2497;47.410;9.740;2023-03-07T01:15:55;15.53;;;6.70;;
4963;SDS011;2497;47.410;9.740;2023-03-07T01:18:31;16.40;;;7.30;;
4963;SDS011;2497;47.410;9.740;2023-03-07T01:20:58;10.23;;;6.10;;
4963;SDS011;2497;47.410;9.740;2023-03-07T01:23:25;21.30;;;8.80;;
4963;SDS011;2497;47.410;9.740;2023-03-07T01:25:52;15.40;;;7.17;;
4963;SDS011;2497;47.410;9.740;2023-03-07T01:28:20;20.80;;;6.77;;
4963;SDS011;2497;47.410;9.740;2023-03-07T01:30:56;21.13;;;7.37;;
4963;SDS011;2497;47.410;9.740;2023-03-07T01:33:24;16.00;;;7.40;;
4963;SDS011;2497;47.410;9.740;2023-03-07T01:35:51;16.23;;;7.90;;
4963;SDS011;2497;47.410;9.740;2023-03-07T01:38:18;16.63;;;7.27;;
4963;SDS011;2497;47.410;9.740;2023-03-07T01:40:45;12.73;;;7.37;;
4963;SDS011;2497;47.410;9.740;2023-03-07T01:43:20;15.53;;;7.73;;
4963;SDS011;2497;47.410;9.740;2023-03-07T01:48:54;19.80;;;7.70;;
4963;SDS011;2497;47.410;9.740;2023-03-07T01:51:25;17.43;;;6.77;;
4963;SDS011;2497;47.410;9.740;2023-03-07T01:53:53;16.47;;;7.00;;
4963;SDS011;2497;47.410;9.740;2023-03-07T01:56:22;19.57;;;7.33;;
4963;SDS011;2497;47.410;9.740;2023-03-07T01:58:50;20.40;;;8.10;;
4963;SDS011;2497;47.410;9.740;2023-03-07T02:01:18;16.27;;;6.03;;
4963;SDS011;2497;47.410;9.740;2023-03-07T02:03:49;16.37;;;7.63;;
4963;SDS011;2497;47.410;9.740;2023-03-07T02:06:20;20.80;;;8.70;;
4963;SDS011;2497;47.410;9.740;2023-03-07T02:08:48;19.60;;;7.90;;
4963;SDS011;2497;47.410;9.740;2023-03-07T02:11:16;19.40;;;7.87;;
4963;SDS011;2497;47.410;9.740;2023-03-07T02:13:46;15.33;;;7.87;;
4963;SDS011;2497;47.410;9.740;2023-03-07T02:16:13;20.03;;;6.90;;
4963;SDS011;2497;47.410;9.740;2023-03-07T02:18:42;16.30;;;6.90;;
4963;SDS011;2497;47.410;9.740;2023-03-07T02:21:14;22.13;;;7.60;;
4963;SDS011;2497;47.410;9.740;2023-03-07T02:23:48;15.07;;;7.13;;
4963;SDS011;2497;47.410;9.740;2023-03-07T02:26:22;14.13;;;6.73;;
4963;SDS011;2497;47.410;9.740;2023-03-07T02:29:00;17.97;;;7.90;;
4963;SDS011;2497;47.410;9.740;2023-03-07T02:31:28;26.20;;;7.50;;
4963;SDS011;2497;47.410;9.740;2023-03-07T02:33:55;18.47;;;7.27;;
4963;SDS011;2497;47.410;9.740;2023-03-07T02:36:24;17.53;;;7.93;;
4963;SDS011;2497;47.410;9.740;2023-03-07T02:38:56;19.37;;;8.00;;
4963;SDS011;2497;47.410;9.740;2023-03-07T02:41:25;16.57;;;7.90;;
4963;SDS011;2497;47.410;9.740;2023-03-07T02:43:57;18.00;;;7.40;;
4963;SDS011;2497;47.410;9.740;2023-03-07T02:46:24;17.90;;;7.97;;
4963;SDS011;2497;47.410;9.740;2023-03-07T02:48:51;16.30;;;6.70;;
4963;SDS011;2497;47.410;9.740;2023-03-07T02:51:18;16.33;;;7.00;;
4963;SDS011;2497;47.410;9.740;2023-03-07T02:53:46;16.90;;;7.43;;
4963;SDS011;2497;47.410;9.740;2023-03-07T02:56:13;20.20;;;7.27;;
4963;SDS011;2497;47.410;9.740;2023-03-07T02:58:40;17.20;;;7.03;;
4963;SDS011;2497;47.410;9.740;2023-03-07T03:01:08;19.97;;;8.50;;
4963;SDS011;2497;47.410;9.740;2023-03-07T03:03:36;20.50;;;7.80;;
4963;SDS011;2497;47.410;9.740;2023-03-07T03:06:03;22.73;;;8.90;;
4963;SDS011;2497;47.410;9.740;2023-03-07T03:08:31;19.53;;;7.73;;
4963;SDS011;2497;47.410;9.740;2023-03-07T03:10:58;22.47;;;8.77;;
4963;SDS011;2497;47.410;9.740;2023-03-07T03:13:25;16.27;;;7.50;;
4963;SDS011;2497;47.410;9.740;2023-03-07T03:15:53;17.10;;;7.13;;
4963;SDS011;2497;47.410;9.740;2023-03-07T03:18:23;23.87;;;7.40;;
4963;SDS011;2497;47.410;9.740;2023-03-07T03:20:50;17.70;;;7.40;;
4963;SDS011;2497;47.410;9.740;2023-03-07T03:23:17;18.80;;;8.00;;
4963;SDS011;2497;47.410;9.740;2023-03-07T03:25:44;18.07;;;7.40;;
4963;SDS011;2497;47.410;9.740;2023-03-07T03:28:11;23.57;;;8.80;;
4963;SDS011;2497;47.410;9.740;2023-03-07T03:30:38;19.27;;;7.03;;
4963;SDS011;2497;47.410;9.740;2023-03-07T03:33:05;16.87;;;7.50;;
4963;SDS011;2497;47.410;9.740;2023-03-07T03:35:34;15.00;;;7.17;;
4963;SDS011;2497;47.410;9.740;2023-03-07T03:38:04;16.30;;;7.80;;
4963;SDS011;2497;47.410;9.740;2023-03-07T03:40:31;20.70;;;8.80;;
4963;SDS011;2497;47.410;9.740;2023-03-07T03:42:58;24.67;;;8.83;;
4963;SDS011;2497;47.410;9.740;2023-03-07T03:45:25;23.13;;;8.07;;
4963;SDS011;2497;47.410;9.740;2023-03-07T03:47:52;21.80;;;8.03;;
4963;SDS011;2497;47.410;9.740;2023-03-07T03:50:19;24.97;;;7.40;;
4963;SDS011;2497;47.410;9.740;2023-03-07T03:52:48;18.10;;;8.17;;
4963;SDS011;2497;47.410;9.740;2023-03-07T03:55:15;19.80;;;7.70;;
4963;SDS011;2497;47.410;9.740;2023-03-07T03:57:42;19.17;;;9.03;;
4963;SDS011;2497;47.410;9.740;2023-03-07T04:00:10;21.57;;;9.13;;
4963;SDS011;2497;47.410;9.740;2023-03-07T04:02:39;19.40;;;8.20;;
4963;SDS011;2497;47.410;9.740;2023-03-07T04:05:07;24.40;;;9.50;;
4963;SDS011;2497;47.410;9.740;2023-03-07T04:07:34;19.93;;;8.63;;
4963;SDS011;2497;47.410;9.740;2023-03-07T04:10:03;21.47;;;9.70;;
4963;SDS011;2497;47.410;9.740;2023-03-07T04:12:31;29.03;;;9.97;;
4963;SDS011;2497;47.410;9.740;2023-03-07T04:14:58;24.93;;;9.67;;
4963;SDS011;2497;47.410;9.740;2023-03-07T04:17:25;22.20;;;10.10;;
4963;SDS011;2497;47.410;9.740;2023-03-07T04:19:52;22.23;;;9.50;;
4963;SDS011;2497;47.410;9.740;2023-03-07T04:22:20;22.60;;;9.63;;
4963;SDS011;2497;47.410;9.740;2023-03-07T04:24:47;25.60;;;11.40;;
4963;SDS011;2497;47.410;9.740;2023-03-07T04:27:15;28.67;;;11.87;;
4963;SDS011;2497;47.410;9.740;2023-03-07T04:29:42;27.07;;;11.20;;
4963;SDS011;2497;47.410;9.740;2023-03-07T04:32:09;26.73;;;10.70;;
4963;SDS011;2497;47.410;9.740;2023-03-07T04:34:37;25.73;;;9.90;;
4963;SDS011;2497;47.410;9.740;2023-03-07T04:37:04;31.67;;;12.77;;
4963;SDS011;2497;47.410;9.740;2023-03-07T04:39:31;24.37;;;11.53;;
4963;SDS011;2497;47.410;9.740;2023-03-07T04:41:58;26.70;;;11.70;;
4963;SDS011;2497;47.410;9.740;2023-03-07T04:44:26;25.43;;;10.30;;
4963;SDS011;2497;47.410;9.740;2023-03-07T04:46:54;22.17;;;9.90;;
4963;SDS011;2497;47.410;9.740;2023-03-07T04:49:21;22.97;;;10.13;;
4963;SDS011;2497;47.410;9.740;2023-03-07T04:51:48;24.37;;;9.40;;
4963;SDS011;2497;47.410;9.740;2023-03-07T04:54:15;23.57;;;9.50;;
4963;SDS011;2497;47.410;9.740;2023-03-07T04:56:42;19.77;;;9.20;;
4963;SDS011;2497;47.410;9.740;2023-03-07T04:59:10;21.23;;;8.07;;
4963;SDS011;2497;47.410;9.740;2023-03-07T05:01:38;20.00;;;8.07;;
4963;SDS011;2497;47.410;9.740;2023-03-07T05:04:05;17.37;;;8.00;;
4963;SDS011;2497;47.410;9.740;2023-03-07T05:06:32;20.13;;;8.57;;
4963;SDS011;2497;47.410;9.740;2023-03-07T05:09:00;19.27;;;8.53;;
4963;SDS011;2497;47.410;9.740;2023-03-07T05:11:27;22.27;;;8.23;;
4963;SDS011;2497;47.410;9.740;2023-03-07T05:13:54;22.67;;;8.53;;
4963;SDS011;2497;47.410;9.740;2023-03-07T05:16:21;16.13;;;7.60;;
4963;SDS011;2497;47.410;9.740;2023-03-07T05:18:49;20.30;;;8.93;;
4963;SDS011;2497;47.410;9.740;2023-03-07T05:21:17;22.50;;;7.97;;
4963;SDS011;2497;47.410;9.740;2023-03-07T05:23:44;28.87;;;10.50;;
4963;SDS011;2497;47.410;9.740;2023-03-07T05:26:11;22.70;;;10.40;;
4963;SDS011;2497;47.410;9.740;2023-03-07T05:28:38;20.23;;;8.30;;
4963;SDS011;2497;47.410;9.740;2023-03-07T05:31:05;26.43;;;8.80;;
4963;SDS011;2497;47.410;9.740;2023-03-07T05:33:32;22.73;;;8.60;;
4963;SDS011;2497;47.410;9.740;2023-03-07T05:36:01;22.27;;;9.03;;
4963;SDS011;2497;47.410;9.740;2023-03-07T05:38:28;27.83;;;8.50;;
4963;SDS011;2497;47.410;9.740;2023-03-07T05:40:55;24.67;;;10.10;;
4963;SDS011;2497;47.410;9.740;2023-03-07T05:43:22;26.20;;;9.17;;
4963;SDS011;2497;47.410;9.740;2023-03-07T05:45:49;20.73;;;10.40;;
4963;SDS011;2497;47.410;9.740;2023-03-07T05:48:16;23.87;;;9.70;;
4963;SDS011;2497;47.410;9.740;2023-03-07T05:50:44;28.60;;;11.37;;
4963;SDS011;2497;47.410;9.740;2023-03-07T05:53:12;20.77;;;9.83;;
4963;SDS011;2497;47.410;9.740;2023-03-07T05:55:40;30.87;;;12.20;;
4963;SDS011;2497;47.410;9.740;2023-03-07T05:58:08;21.37;;;10.13;;
4963;SDS011;2497;47.410;9.740;2023-03-07T06:00:37;24.20;;;11.73;;
4963;SDS011;2497;47.410;9.740;2023-03-07T06:03:04;30.83;;;13.10;;
4963;SDS011;2497;47.410;9.740;2023-03-07T06:05:31;21.63;;;11.10;;
4963;SDS011;2497;47.410;9.740;2023-03-07T06:07:58;32.10;;;12.13;;
4963;SDS011;2497;47.410;9.740;2023-03-07T06:10:27;25.27;;;12.33;;
4963;SDS011;2497;47.410;9.740;2023-03-07T06:12:54;28.50;;;10.57;;
4963;SDS011;2497;47.410;9.740;2023-03-07T06:15:21;29.20;;;10.80;;
4963;SDS011;2497;47.410;9.740;2023-03-07T06:17:49;23.43;;;11.70;;
4963;SDS011;2497;47.410;9.740;2023-03-07T06:20:17;25.47;;;10.97;;
4963;SDS011;2497;47.410;9.740;2023-03-07T06:22:45;21.93;;;9.70;;
4963;SDS011;2497;47.410;9.740;2023-03-07T06:25:13;23.93;;;9.17;;
4963;SDS011;2497;47.410;9.740;2023-03-07T06:27:42;21.50;;;7.97;;
4963;SDS011;2497;47.410;9.740;2023-03-07T06:30:10;25.50;;;10.40;;
4963;SDS011;2497;47.410;9.740;2023-03-07T06:32:38;22.00;;;10.00;;
4963;SDS011;2497;47.410;9.740;2023-03-07T06:35:05;30.00;;;10.70;;
4963;SDS011;2497;47.410;9.740;2023-03-07T06:37:33;37.27;;;12.33;;
4963;SDS011;2497;47.410;9.740;2023-03-07T06:40:00;40.93;;;12.03;;
4963;SDS011;2497;47.410;9.740;2023-03-07T06:42:30;30.70;;;11.90;;
4963;SDS011;2497;47.410;9.740;2023-03-07T06:44:59;23.83;;;11.23;;
4963;SDS011;2497;47.410;9.740;2023-03-07T06:47:26;28.63;;;11.33;;
4963;SDS011;2497;47.410;9.740;2023-03-07T06:49:53;27.97;;;10.17;;
4963;SDS011;2497;47.410;9.740;2023-03-07T06:52:20;25.07;;;9.80;;
4963;SDS011;2497;47.410;9.740;2023-03-07T06:54:48;27.80;;;10.73;;
4963;SDS011;2497;47.410;9.740;2023-03-07T06:57:15;22.50;;;8.90;;
4963;SDS011;2497;47.410;9.740;2023-03-07T06:59:42;29.57;;;10.50;;
4963;SDS011;2497;47.410;9.740;2023-03-07T07:02:11;27.03;;;10.43;;
4963;SDS011;2497;47.410;9.740;2023-03-07T07:04:39;28.93;;;8.90;;
4963;SDS011;2497;47.410;9.740;2023-03-07T07:07:06;23.97;;;10.90;;
4963;SDS011;2497;47.410;9.740;2023-03-07T07:09:34;25.43;;;10.60;;
4963;SDS011;2497;47.410;9.740;2023-03-07T07:12:01;24.60;;;10.83;;
4963;SDS011;2497;47.410;9.740;2023-03-07T07:14:29;41.00;;;15.13;;
4963;SDS011;2497;47.410;9.740;2023-03-07T07:16:57;32.77;;;14.03;;
4963;SDS011;2497;47.410;9.740;2023-03-07T07:19:26;35.23;;;13.03;;
4963;SDS011;2497;47.410;9.740;2023-03-07T07:21:53;38.47;;;12.23;;
4963;SDS011;2497;47.410;9.740;2023-03-07T07:24:21;29.67;;;12.67;;
4963;SDS011;2497;47.410;9.740;2023-03-07T07:26:48;31.30;;;13.93;;
4963;SDS011;2497;47.410;9.740;2023-03-07T07:29:16;26.23;;;11.20;;
4963;SDS011;2497;47.410;9.740;2023-03-07T07:31:43;34.27;;;12.83;;
4963;SDS011;2497;47.410;9.740;2023-03-07T07:34:10;49.80;;;22.30;;
4963;SDS011;2497;47.410;9.740;2023-03-07T07:36:38;42.93;;;16.20;;
4963;SDS011;2497;47.410;9.740;2023-03-07T07:39:06;25.07;;;13.73;;
4963;SDS011;2497;47.410;9.740;2023-03-07T07:41:34;44.97;;;15.07;;
4963;SDS011;2497;47.410;9.740;2023-03-07T07:44:02;32.30;;;12.17;;
4963;SDS011;2497;47.410;9.740;2023-03-07T07:46:29;33.27;;;13.23;;
4963;SDS011;2497;47.410;9.740;2023-03-07T07:48:56;30.67;;;13.17;;
4963;SDS011;2497;47.410;9.740;2023-03-07T07:51:23;29.30;;;12.43;;
4963;SDS011;2497;47.410;9.740;2023-03-07T07:53:52;39.47;;;13.13;;
4963;SDS011;2497;47.410;9.740;2023-03-07T07:56:19;35.70;;;13.77;;
4963;SDS011;2497;47.410;9.740;2023-03-07T07:58:46;23.10;;;10.80;;
4963;SDS011;2497;47.410;9.740;2023-03-07T08:01:14;43.37;;;12.90;;
4963;SDS011;2497;47.410;9.740;2023-03-07T08:03:43;44.63;;;13.80;;
4963;SDS011;2497;47.410;9.740;2023-03-07T08:06:10;32.40;;;12.87;;
4963;SDS011;2497;47.410;9.740;2023-03-07T08:08:37;27.40;;;11.70;;
4963;SDS011;2497;47.410;9.740;2023-03-07T08:11:06;41.47;;;14.17;;
4963;SDS011;2497;47.410;9.740;2023-03-07T08:13:33;27.50;;;12.70;;
4963;SDS011;2497;47.410;9.740;2023-03-07T08:16:07;31.70;;;11.70;;
4963;SDS011;2497;47.410;9.740;2023-03-07T08:18:35;28.80;;;11.90;;
4963;SDS011;2497;47.410;9.740;2023-03-07T08:21:02;26.17;;;11.20;;
4963;SDS011;2497;47.410;9.740;2023-03-07T08:23:32;30.30;;;11.83;;
4963;SDS011;2497;47.410;9.740;2023-03-07T08:26:00;34.60;;;12.20;;
4963;SDS011;2497;47.410;9.740;2023-03-07T08:28:29;30.00;;;12.10;;
4963;SDS011;2497;47.410;9.740;2023-03-07T08:30:57;34.27;;;11.33;;
4963;SDS011;2497;47.410;9.740;2023-03-07T08:33:24;25.60;;;10.67;;
4963;SDS011;2497;47.410;9.740;2023-03-07T08:35:51;27.80;;;10.27;;
4963;SDS011;2497;47.410;9.740;2023-03-07T08:38:18;29.27;;;10.70;;
4963;SDS011;2497;47.410;9.740;2023-03-07T08:40:47;28.03;;;11.30;;
4963;SDS011;2497;47.410;9.740;2023-03-07T08:43:14;23.03;;;10.43;;
4963;SDS011;2497;47.410;9.740;2023-03-07T08:45:43;24.50;;;10.40;;
4963;SDS011;2497;47.410;9.740;2023-03-07T08:48:10;21.03;;;10.17;;
4963;SDS011;2497;47.410;9.740;2023-03-07T08:50:37;23.50;;;10.57;;
4963;SDS011;2497;47.410;9.740;2023-03-07T08:53:04;20.80;;;10.17;;
4963;SDS011;2497;47.410;9.740;2023-03-07T08:55:33;25.47;;;11.00;;
4963;SDS011;2497;47.410;9.740;2023-03-07T08:58:00;35.20;;;12.10;;
4963;SDS011;2497;47.410;9.740;2023-03-07T09:00:28;26.03;;;11.10;;
4963;SDS011;2497;47.410;9.740;2023-03-07T09:02:56;28.43;;;11.50;;
4963;SDS011;2497;47.410;9.740;2023-03-07T09:05:25;25.30;;;10.30;;
4963;SDS011;2497;47.410;9.740;2023-03-07T09:07:52;34.23;;;10.27;;
4963;SDS011;2497;47.410;9.740;2023-03-07T09:10:20;25.73;;;10.63;;
4963;SDS011;2497;47.410;9.740;2023-03-07T09:12:47;27.37;;;11.83;;
4963;SDS011;2497;47.410;9.740;2023-03-07T09:15:16;24.50;;;9.83;;
4963;SDS011;2497;47.410;9.740;2023-03-07T09:17:43;26.77;;;10.37;;
4963;SDS011;2497;47.410;9.740;2023-03-07T09:20:15;28.30;;;10.63;;
4963;SDS011;2497;47.410;9.740;2023-03-07T09:22:42;27.00;;;11.50;;
4963;SDS011;2497;47.410;9.740;2023-03-07T09:25:11;33.97;;;12.03;;
4963;SDS011;2497;47.410;9.740;2023-03-07T09:27:38;23.30;;;10.00;;
4963;SDS011;2497;47.410;9.740;2023-03-07T09:30:05;28.37;;;10.63;;
4963;SDS011;2497;47.410;9.740;2023-03-07T09:32:33;23.23;;;10.57;;
4963;SDS011;2497;47.410;9.740;2023-03-07T09:35:01;23.70;;;10.80;;
4963;SDS011;2497;47.410;9.740;2023-03-07T09:37:30;29.30;;;11.03;;
4963;SDS011;2497;47.410;9.740;2023-03-07T09:39:57;20.67;;;8.57;;
4963;SDS011;2497;47.410;9.740;2023-03-07T09:42:25;27.60;;;12.63;;
4963;SDS011;2497;47.410;9.740;2023-03-07T09:45:07;28.13;;;11.43;;
4963;SDS011;2497;47.410;9.740;2023-03-07T09:50:42;24.37;;;10.30;;
4963;SDS011;2497;47.410;9.740;2023-03-07T09:53:17;25.40;;;11.00;;
4963;SDS011;2497;47.410;9.740;2023-03-07T09:55:48;20.67;;;9.50;;
4963;SDS011;2497;47.410;9.740;2023-03-07T09:58:20;23.20;;;8.73;;
4963;SDS011;2497;47.410;9.740;2023-03-07T10:00:52;24.20;;;9.90;;
4963;SDS011;2497;47.410;9.740;2023-03-07T10:03:26;22.87;;;10.37;;
4963;SDS011;2497;47.410;9.740;2023-03-07T10:06:01;24.27;;;9.63;;
4963;SDS011;2497;47.410;9.740;2023-03-07T10:08:36;25.73;;;9.77;;
4963;SDS011;2497;47.410;9.740;2023-03-07T10:11:05;24.03;;;9.70;;
4963;SDS011;2497;47.410;9.740;2023-03-07T10:13:50;29.50;;;9.23;;
4963;SDS011;2497;47.410;9.740;2023-03-07T10:16:31;25.83;;;10.30;;
4963;SDS011;2497;47.410;9.740;2023-03-07T10:19:08;27.03;;;10.50;;
4963;SDS011;2497;47.410;9.740;2023-03-07T10:21:39;18.43;;;9.23;;
4963;SDS011;2497;47.410;9.740;2023-03-07T10:24:16;23.77;;;10.00;;
4963;SDS011;2497;47.410;9.740;2023-03-07T10:26:56;20.20;;;8.53;;
4963;SDS011;2497;47.410;9.740;2023-03-07T10:29:30;21.63;;;9.53;;
4963;SDS011;2497;47.410;9.740;2023-03-07T10:32:04;31.53;;;10.13;;
4963;SDS011;2497;47.410;9.740;2023-03-07T10:34:43;32.57;;;11.47;;
4963;SDS011;2497;47.410;9.740;2023-03-07T10:37:13;25.30;;;10.70;;
4963;SDS011;2497;47.410;9.740;2023-03-07T10:39:45;30.87;;;10.80;;
4963;SDS011;2497;47.410;9.740;2023-03-07T10:42:17;30.10;;;10.00;;
4963;SDS011;2497;47.410;9.740;2023-03-07T10:44:46;25.67;;;11.67;;
4963;SDS011;2497;47.410;9.740;2023-03-07T10:47:17;27.10;;;10.37;;
4963;SDS011;2497;47.410;9.740;2023-03-07T10:49:46;25.63;;;10.17;;
4963;SDS011;2497;47.410;9.740;2023-03-07T10:52:16;19.20;;;9.27;;
4963;SDS011;2497;47.410;9.740;2023-03-07T10:54:53;20.50;;;9.87;;
4963;SDS011;2497;47.410;9.740;2023-03-07T10:57:25;26.80;;;10.77;;
4963;SDS011;2497;47.410;9.740;2023-03-07T10:59:53;27.50;;;11.17;;
4963;SDS011;2497;47.410;9.740;2023-03-07T11:02:30;24.80;;;10.60;;
4963;SDS011;2497;47.410;9.740;2023-03-07T11:05:00;21.17;;;10.33;;
4963;SDS011;2497;47.410;9.740;2023-03-07T11:07:28;24.50;;;10.50;;
4963;SDS011;2497;47.410;9.740;2023-03-07T11:09:58;26.63;;;11.93;;
4963;SDS011;2497;47.410;9.740;2023-03-07T11:12:27;20.90;;;10.67;;
4963;SDS011;2497;47.410;9.740;2023-03-07T11:14:56;22.63;;;11.70;;
4963;SDS011;2497;47.410;9.740;2023-03-07T11:17:38;25.47;;;9.30;;
4963;SDS011;2497;47.410;9.740;2023-03-07T11:20:16;21.63;;;9.73;;
4963;SDS011;2497;47.410;9.740;2023-03-07T11:22:45;25.53;;;9.43;;
4963;SDS011;2497;47.410;9.740;2023-03-07T11:25:15;23.07;;;9.50;;
4963;SDS011;2497;47.410;9.740;2023-03-07T11:27:48;21.53;;;9.07;;
4963;SDS011;2497;47.410;9.740;2023-03-07T11:30:18;25.60;;;10.47;;
4963;SDS011;2497;47.410;9.740;2023-03-07T11:32:51;17.27;;;9.50;;
4963;SDS011;2497;47.410;9.740;2023-03-07T11:35:26;20.10;;;9.57;;
4963;SDS011;2497;47.410;9.740;2023-03-07T11:38:06;20.17;;;9.60;;
4963;SDS011;2497;47.410;9.740;2023-03-07T11:40:41;23.80;;;10.77;;
4963;SDS011;2497;47.410;9.740;2023-03-07T11:43:17;19.47;;;10.00;;
4963;SDS011;2497;47.410;9.740;2023-03-07T11:45:50;22.40;;;9.20;;
4963;SDS011;2497;47.410;9.740;2023-03-07T11:48:28;16.70;;;8.90;;
4963;SDS011;2497;47.410;9.740;2023-03-07T11:51:08;24.50;;;10.77;;
4963;SDS011;2497;47.410;9.740;2023-03-07T11:53:56;21.90;;;9.00;;
4963;SDS011;2497;47.410;9.740;2023-03-07T11:56:32;22.97;;;8.73;;
4963;SDS011;2497;47.410;9.740;2023-03-07T11:59:15;25.93;;;10.53;;
4963;SDS011;2497;47.410;9.740;2023-03-07T12:01:52;19.73;;;9.70;;
4963;SDS011;2497;47.410;9.740;2023-03-07T12:04:29;16.60;;;9.30;;
4963;SDS011;2497;47.410;9.740;2023-03-07T12:07:13;24.67;;;10.03;;
4963;SDS011;2497;47.410;9.740;2023-03-07T12:09:53;21.70;;;9.77;;
4963;SDS011;2497;47.410;9.740;2023-03-07T12:12:35;16.90;;;9.60;;
4963;SDS011;2497;47.410;9.740;2023-03-07T12:15:27;19.87;;;9.80;;
4963;SDS011;2497;47.410;9.740;2023-03-07T12:18:07;19.97;;;9.10;;
4963;SDS011;2497;47.410;9.740;2023-03-07T12:20:48;24.20;;;8.93;;
4963;SDS011;2497;47.410;9.740;2023-03-07T12:23:25;14.90;;;7.80;;
4963;SDS011;2497;47.410;9.740;2023-03-07T12:26:02;16.83;;;8.57;;
4963;SDS011;2497;47.410;9.740;2023-03-07T12:28:41;16.67;;;9.40;;
4963;SDS011;2497;47.410;9.740;2023-03-07T12:31:13;21.83;;;8.77;;
4963;SDS011;2497;47.410;9.740;2023-03-07T12:33:47;20.37;;;8.87;;
4963;SDS011;2497;47.410;9.740;2023-03-07T12:36:24;17.40;;;8.53;;
4963;SDS011;2497;47.410;9.740;2023-03-07T12:38:57;23.43;;;8.93;;
4963;SDS011;2497;47.410;9.740;2023-03-07T12:41:37;20.60;;;8.97;;
4963;SDS011;2497;47.410;9.740;2023-03-07T12:44:14;20.10;;;8.43;;
4963;SDS011;2497;47.410;9.740;2023-03-07T12:46:50;20.37;;;8.60;;
4963;SDS011;2497;47.410;9.740;2023-03-07T12:49:23;21.60;;;10.33;;
4963;SDS011;2497;47.410;9.740;2023-03-07T12:52:00;19.40;;;9.63;;
4963;SDS011;2497;47.410;9.740;2023-03-07T12:54:31;20.47;;;8.87;;
4963;SDS011;2497;47.410;9.740;2023-03-07T12:57:04;19.60;;;8.80;;
4963;SDS011;2497;47.410;9.740;2023-03-07T12:59:36;31.63;;;10.40;;
4963;SDS011;2497;47.410;9.740;2023-03-07T13:02:10;16.90;;;8.37;;
4963;SDS011;2497;47.410;9.740;2023-03-07T13:04:40;25.53;;;8.80;;
4963;SDS011;2497;47.410;9.740;2023-03-07T13:07:08;15.60;;;8.43;;
4963;SDS011;2497;47.410;9.740;2023-03-07T13:09:39;20.87;;;9.07;;
4963;SDS011;2497;47.410;9.740;2023-03-07T13:15:02;19.57;;;8.73;;
4963;SDS011;2497;47.410;9.740;2023-03-07T13:20:34;25.30;;;9.97;;
4963;SDS011;2497;47.410;9.740;2023-03-07T13:23:21;16.17;;;8.83;;
4963;SDS011;2497;47.410;9.740;2023-03-07T13:26:00;17.20;;;8.47;;
4963;SDS011;2497;47.410;9.740;2023-03-07T13:28:31;16.30;;;8.63;;
4963;SDS011;2497;47.410;9.740;2023-03-07T13:31:12;19.23;;;8.30;;
4963;SDS011;2497;47.410;9.740;2023-03-07T13:33:55;20.53;;;9.70;;
4963;SDS011;2497;47.410;9.740;2023-03-07T13:36:42;20.83;;;9.60;;
4963;SDS011;2497;47.410;9.740;2023-03-07T13:42:00;18.43;;;9.00;;
4963;SDS011;2497;47.410;9.740;2023-03-07T13:44:29;19.83;;;10.10;;
4963;SDS011;2497;47.410;9.740;2023-03-07T13:47:22;22.83;;;9.37;;
4963;SDS011;2497;47.410;9.740;2023-03-07T13:50:17;20.43;;;9.10;;
4963;SDS011;2497;47.410;9.740;2023-03-07T13:53:07;24.50;;;9.37;;
4963;SDS011;2497;47.410;9.740;2023-03-07T13:55:40;20.43;;;9.93;;
4963;SDS011;2497;47.410;9.740;2023-03-07T13:58:18;23.33;;;10.33;;
4963;SDS011;2497;47.410;9.740;2023-03-07T14:00:50;17.20;;;8.80;;
4963;SDS011;2497;47.410;9.740;2023-03-07T14:03:28;15.60;;;8.23;;
4963;SDS011;2497;47.410;9.740;2023-03-07T14:05:59;22.53;;;9.13;;
4963;SDS011;2497;47.410;9.740;2023-03-07T14:08:29;22.67;;;9.67;;
4963;SDS011;2497;47.410;9.740;2023-03-07T14:10:59;28.57;;;8.67;;
4963;SDS011;2497;47.410;9.740;2023-03-07T14:16:38;20.63;;;9.90;;
4963;SDS011;2497;47.410;9.740;2023-03-07T14:19:25;18.53;;;9.37;;
4963;SDS011;2497;47.410;9.740;2023-03-07T14:22:08;26.03;;;10.00;;
4963;SDS011;2497;47.410;9.740;2023-03-07T14:24:48;25.80;;;9.80;;
4963;SDS011;2497;47.410;9.740;2023-03-07T14:27:23;22.80;;;10.27;;
4963;SDS011;2497;47.410;9.740;2023-03-07T14:29:50;21.97;;;10.40;;
4963;SDS011;2497;47.410;9.740;2023-03-07T14:32:21;26.43;;;10.80;;
4963;SDS011;2497;47.410;9.740;2023-03-07T14:34:52;20.67;;;9.90;;
4963;SDS011;2497;47.410;9.740;2023-03-07T14:37:21;24.53;;;10.50;;
4963;SDS011;2497;47.410;9.740;2023-03-07T14:39:55;24.60;;;9.63;;
4963;SDS011;2497;47.410;9.740;2023-03-07T14:42:44;23.40;;;10.20;;
4963;SDS011;2497;47.410;9.740;2023-03-07T14:45:22;27.00;;;10.03;;
4963;SDS011;2497;47.410;9.740;2023-03-07T14:48:09;18.80;;;8.40;;
4963;SDS011;2497;47.410;9.740;2023-03-07T14:50:51;23.10;;;9.30;;
4963;SDS011;2497;47.410;9.740;2023-03-07T14:53:19;28.20;;;10.30;;
4963;SDS011;2497;47.410;9.740;2023-03-07T14:55:49;29.63;;;12.03;;
4963;SDS011;2497;47.410;9.740;2023-03-07T14:58:19;24.27;;;10.03;;
4963;SDS011;2497;47.410;9.740;2023-03-07T15:00:55;23.23;;;9.87;;
4963;SDS011;2497;47.410;9.740;2023-03-07T15:03:24;19.50;;;9.83;;
4963;SDS011;2497;47.410;9.740;2023-03-07T15:05:53;29.70;;;10.67;;
4963;SDS011;2497;47.410;9.740;2023-03-07T15:08:22;18.20;;;9.47;;
4963;SDS011;2497;47.410;9.740;2023-03-07T15:10:51;30.17;;;11.23;;
4963;SDS011;2497;47.410;9.740;2023-03-07T15:13:25;18.67;;;8.53;;
4963;SDS011;2497;47.410;9.740;2023-03-07T15:15:58;29.47;;;10.57;;
4963;SDS011;2497;47.410;9.740;2023-03-07T15:18:28;24.87;;;8.83;;
4963;SDS011;2497;47.410;9.740;2023-03-07T15:21:00;20.77;;;9.13;;
4963;SDS011;2497;47.410;9.740;2023-03-07T15:23:29;22.67;;;10.10;;
4963;SDS011;2497;47.410;9.740;2023-03-07T15:25:59;22.63;;;10.67;;
4963;SDS011;2497;47.410;9.740;2023-03-07T15:28:30;21.00;;;8.73;;
4963;SDS011;2497;47.410;9.740;2023-03-07T15:30:59;30.47;;;10.70;;
4963;SDS011;2497;47.410;9.740;2023-03-07T15:33:28;19.13;;;9.07;;